SKCLSKBQ

Guest
Details From SKCL - ALFONSO BONILLA ARAGON INTL
To SKBQ - Ernesto Cortissoz
Flight Number -
Tags generated
Created
Modified
Stats Distance 471 nm / 872 km
Max Altitude 35,000 ft / 10,668 m
Waypoints 6
Social Downloads 1
Likes 0
Share VATSIM

Download

Looking for another format? Having issues loading an existing format? Contact us
Advertisement - Login to hide

Notes

Basic altitude profile: - Ascent Rate: 2500ft/min - Ascent Speed: 250kts - Cruise Altitude: 35000ft - Cruise Speed: 420kts - Descent Rate: 1500ft/min - Descent Speed: 250kts Options: - Use NATs: yes - Use PACOTS: yes - Use low airways: no - Use high airways: yes

Route

SKCL PEI UG438 CTG SKBQ

ID Type Via Altitude Latitude Longitude Leg Dist Tot Dist Heading (true) Name
O SKCL APT - 0 ft / 0 m 3.54322˚ -76.38159˚ - 0 nm - ALFONSO BONILLA ARAGON INTL
PEI VOR - 29,000 ft / 8,839 m 4.78297˚ -75.83578˚ 81 nm 81 nm 24° / 24° PEREIRA VOR-DME
RNG VOR UG438 (AWY-HI) 35,000 ft / 10,668 m 5.98056˚ -75.41833˚ 76 nm 157 nm 19° / 19° RIONEGRO VOR-DME
BUTAL FIX UG438 (AWY-HI) 34,000 ft / 10,363 m 7.85361˚ -75.45722˚ 112 nm 269 nm 359° / 359° -
CTG VOR UG438 (AWY-HI) 24,500 ft / 7,468 m 10.20836˚ -75.50608˚ 141 nm 411 nm 359° / 359° CARTAGENA VOR-DME
O SKBQ APT - 0 ft / 0 m 10.88959˚ -74.78082˚ 59 nm 470 nm 46° / 46° Ernesto Cortissoz

Altitude Profile

Advertisement - Login to hide

Weather


0- 5 10 15 20 25 30 35+ Temperature / ° C

Clouds and Precipitation
Forecast for 2017-12-12 06:00 UTC. Updated 2 hours ago

Ground ~20,000 ft ~40,000 ft Winds

SKCL

Details ICAO SKCL (CLO)
Name ALFONSO BONILLA ARAGON INTL
Region Colombia
Timezone America/Bogota (UTC-5.0)
Stats Elevation 3,162 ft / 964 m (AMSL)
Location 3.543221° -76.381587°
Runways 1
Magnetic Variation 5.582° W

METAR

SKCL 120600Z 02007KT 9999 SCT020 SCT120 21/20 A3003

Decode

TAF

Not found

Departure Runways

ID Width Length Bearing (true) Bearing (mag) Surface Threshold Offset Overrun Length
01 148 ft / 45 m 9,869 ft / 3,008 m 9.91° 15.49° Asphalt 0 ft / 0 m 50 ft / 15 m
19 148 ft / 45 m 9,869 ft / 3,008 m 189.91° 195.49° Asphalt 0 ft / 0 m 65 ft / 20 m

SKBQ

Details ICAO SKBQ (BAQ)
Name Ernesto Cortissoz
Region Colombia
Timezone America/Bogota (UTC-5.0)
Stats Elevation 98 ft / 30 m (AMSL)
Location 10.889589° -74.780820°
Runways 1
Magnetic Variation 7.726° W

METAR

SKBQ 120700Z VRB02KT 9999 FEW012 25/24 A2985

Decode

TAF

Not found

Destination Runways

ID Width Length Bearing (true) Bearing (mag) Surface Threshold Offset Overrun Length
05 148 ft / 45 m 9,863 ft / 3,006 m 40.09° 47.82° Concrete 0 ft / 0 m 105 ft / 32 m
23 148 ft / 45 m 9,863 ft / 3,006 m 220.09° 227.82° Concrete 0 ft / 0 m 0 ft / 0 m

Approach Navaids

Runway Type Ident Frequency Range Bearing (true) Bearing (mag) Slope Elevation
05 Localiser IBAQ 109.90 MHz 18 nm / 33 km 39.98° 47.71° - 98 ft / 30 m (AMSL)
05 Glidescope IBAQ 109.90 MHz 10 nm / 19 km 40.09° 47.82° 3.00° 98 ft / 30 m (AMSL)

Popular Alternatives